Time;durP1;ratioP1;P1;durP2;ratioP2;P2;SDS_P1;SDS_P2;PMS_P1;PMS_P2;Temp;Humidity;BMP_temperature;BMP_pressure;BME280_temperature;BME280_humidity;BME280_pressure;Samples;Min_cycle;Max_cycle;Signal;HPM_P1;HPM_P2
2021/12/12 00:01:53;;;;;;;70.78;59.70;;;23.30;40.20;;;;;;4748491;58;21515;-32
2021/12/12 00:06:56;;;;;;;66.85;57.60;;;23.20;40.20;;;;;;5061798;55;21462;-37
2021/12/12 00:11:59;;;;;;;65.37;56.05;;;23.30;40.20;;;;;;4797214;55;21041;-42
2021/12/12 00:17:02;;;;;;;67.18;57.03;;;23.30;40.20;;;;;;4807737;55;20998;-37
2021/12/12 00:22:08;;;;;;;65.45;57.00;;;23.30;40.10;;;;;;4801970;55;20974;-35
2021/12/12 00:27:08;;;;;;;61.60;53.50;;;23.30;40.20;;;;;;4800749;55;21038;-36
2021/12/12 00:32:13;;;;;;;59.75;52.20;;;23.20;40.10;;;;;;4874723;55;21021;-39
2021/12/12 00:37:14;;;;;;;58.60;52.15;;;23.30;40.10;;;;;;5026533;55;21539;-38
2021/12/12 00:42:22;;;;;;;57.58;50.50;;;23.30;40.10;;;;;;5084769;54;21053;-41
2021/12/12 00:47:24;;;;;;;59.25;52.45;;;23.30;40.10;;;;;;4836527;55;21045;-36
2021/12/12 00:52:25;;;;;;;57.92;51.30;;;23.30;40.00;;;;;;4787391;55;21041;-38
2021/12/12 00:57:27;;;;;;;58.85;51.35;;;23.20;40.00;;;;;;4913034;55;21471;-39
2021/12/12 01:02:30;;;;;;;56.55;50.35;;;23.20;40.00;;;;;;4860115;55;21568;-36
2021/12/12 01:07:35;;;;;;;53.83;47.10;;;23.20;40.00;;;;;;4927363;55;21538;-38
2021/12/12 01:12:37;;;;;;;54.47;47.97;;;23.20;40.00;;;;;;4776831;55;20994;-36
2021/12/12 01:17:42;;;;;;;54.90;47.42;;;23.20;39.90;;;;;;4816403;55;21066;-38
2021/12/12 01:22:44;;;;;;;51.92;45.17;;;23.20;39.90;;;;;;4850629;55;21568;-37
2021/12/12 01:27:45;;;;;;;50.20;44.63;;;23.20;39.90;;;;;;4832986;55;21042;-36
2021/12/12 01:32:47;;;;;;;49.38;43.97;;;23.20;39.90;;;;;;4842428;55;21565;-37
2021/12/12 01:43:39;;;;;;;48.53;42.92;;;23.20;39.90;;;;;;4747609;55;21021;-33
2021/12/12 01:48:45;;;;;;;49.60;43.80;;;23.20;39.90;;;;;;4752255;55;21507;-35
2021/12/12 01:53:51;;;;;;;47.67;41.05;;;23.20;39.80;;;;;;4766486;55;21484;-34
2021/12/12 01:58:57;;;;;;;48.20;42.53;;;23.20;40.50;;;;;;4789137;55;20998;-34
2021/12/12 02:04:07;;;;;;;45.33;40.43;;;23.20;39.80;;;;;;4748466;58;21670;-33
2021/12/12 02:09:08;;;;;;;46.92;41.88;;;23.20;39.80;;;;;;4747291;58;21021;-34
2021/12/12 02:14:12;;;;;;;44.53;39.67;;;23.20;39.80;;;;;;5215459;55;21519;-35
2021/12/12 02:19:15;;;;;;;45.28;39.50;;;23.20;39.80;;;;;;4748179;55;21025;-36
2021/12/12 02:43:34;;;;;;;41.75;37.25;;;23.20;39.70;;;;;;4776354;54;21017;-43
2021/12/12 02:48:40;;;;;;;42.28;36.88;;;23.20;39.70;;;;;;4816574;55;21531;-36
2021/12/12 02:53:55;;;;;;;39.67;35.33;;;23.20;39.70;;;;;;4839759;55;20974;-38
2021/12/12 02:58:56;;;;;;;38.05;33.80;;;23.20;39.70;;;;;;4961190;55;21547;-35
2021/12/12 03:03:59;;;;;;;36.95;32.95;;;23.20;39.60;;;;;;4747960;54;21496;-34
2021/12/12 03:09:19;;;;;;;37.13;32.63;;;23.20;39.60;;;;;;4954540;55;21088;-35
2021/12/12 03:14:20;;;;;;;39.75;34.58;;;23.20;39.50;;;;;;4924208;55;21481;-29
2021/12/12 03:19:21;;;;;;;38.35;34.15;;;23.20;39.50;;;;;;4754734;55;21496;-35
2021/12/12 03:24:25;;;;;;;35.38;31.58;;;23.20;39.50;;;;;;4832601;55;20999;-35
2021/12/12 03:29:29;;;;;;;35.95;32.05;;;23.10;39.50;;;;;;4797551;55;21524;-35
2021/12/12 03:34:34;;;;;;;34.05;30.37;;;23.20;39.50;;;;;;4773469;55;21061;-34
2021/12/12 03:39:38;;;;;;;36.47;31.15;;;23.20;39.50;;;;;;4938095;55;21219;-34
2021/12/12 03:44:40;;;;;;;33.67;29.30;;;23.20;39.40;;;;;;4765782;55;21062;-36
2021/12/12 03:49:41;;;;;;;32.33;28.83;;;23.10;39.30;;;;;;4765599;55;21025;-36
2021/12/12 03:54:44;;;;;;;30.65;26.92;;;23.20;39.40;;;;;;4918830;55;20997;-40
2021/12/12 03:59:45;;;;;;;32.67;29.02;;;23.10;39.30;;;;;;4827652;55;20994;-43
2021/12/12 04:04:48;;;;;;;30.73;27.42;;;23.20;39.40;;;;;;4869792;55;21010;-31
2021/12/12 04:09:49;;;;;;;31.77;27.65;;;23.20;40.00;;;;;;4972643;55;21014;-34
2021/12/12 04:14:52;;;;;;;29.60;26.42;;;23.10;39.30;;;;;;4801605;55;20997;-37
2021/12/12 04:19:56;;;;;;;30.33;27.15;;;23.20;39.30;;;;;;5046538;55;21073;-36
2021/12/12 04:24:57;;;;;;;29.67;26.45;;;23.20;39.30;;;;;;4911396;55;21059;-32
2021/12/12 04:30:00;;;;;;;27.95;24.90;;;23.20;39.20;;;;;;4915193;55;21041;-38
2021/12/12 04:35:08;;;;;;;28.50;25.50;;;23.20;39.20;;;;;;4790163;55;21512;-34
2021/12/12 04:40:14;;;;;;;28.98;25.80;;;23.20;39.10;;;;;;5174301;55;21058;-35
2021/12/12 04:46:04;;;;;;;28.42;25.37;;;23.30;39.10;;;;;;4763023;55;21456;-35
2021/12/12 04:51:26;;;;;;;28.98;25.88;;;23.30;39.00;;;;;;4785830;55;21453;-37
2021/12/12 04:56:39;;;;;;;27.37;24.48;;;23.30;39.00;;;;;;4748017;58;20998;-33
2021/12/12 05:01:59;;;;;;;26.85;24.02;;;23.30;38.90;;;;;;4800831;55;21045;-37
2021/12/12 05:07:16;;;;;;;26.42;23.62;;;23.30;38.80;;;;;;4809581;55;21006;-32
2021/12/12 05:12:20;;;;;;;;;;;23.30;38.80;;;;;;4827865;55;21069;-38
2021/12/12 05:17:28;;;;;;;26.33;23.45;;;23.30;38.80;;;;;;4748381;58;20065;-37
2021/12/12 05:22:43;;;;;;;25.00;22.40;;;23.40;38.80;;;;;;4794970;55;21464;-34
2021/12/12 05:27:46;;;;;;;24.95;22.25;;;23.40;38.80;;;;;;4899402;55;21089;-40
2021/12/12 05:32:48;;;;;;;23.90;21.42;;;23.40;38.80;;;;;;4975888;55;21025;-36
2021/12/12 05:37:52;;;;;;;24.05;21.50;;;23.40;38.70;;;;;;4826127;55;21049;-35
2021/12/12 05:42:59;;;;;;;24.58;21.87;;;23.40;38.70;;;;;;4998542;55;20998;-37
2021/12/12 05:48:01;;;;;;;23.30;20.85;;;23.40;38.70;;;;;;5038344;55;21507;-38
2021/12/12 05:53:03;;;;;;;22.55;20.15;;;23.40;38.70;;;;;;4951665;55;21065;-35
2021/12/12 05:58:07;;;;;;;23.92;21.42;;;23.40;38.70;;;;;;4981516;55;20954;-35
2021/12/12 06:03:10;;;;;;;22.55;20.27;;;23.40;38.70;;;;;;4763791;55;21013;-40
2021/12/12 06:08:12;;;;;;;21.80;19.50;;;23.40;38.60;;;;;;5001484;55;20986;-34
2021/12/12 06:13:15;;;;;;;20.65;18.52;;;23.40;38.60;;;;;;4891682;55;21077;-35
2021/12/12 06:18:19;;;;;;;21.67;19.37;;;23.40;38.60;;;;;;5139203;55;20986;-34
2021/12/12 06:23:20;;;;;;;20.80;18.48;;;23.40;38.60;;;;;;4824917;55;21006;-37
2021/12/12 06:28:31;;;;;;;20.35;18.15;;;23.40;38.60;;;;;;4871050;55;21021;-35
2021/12/12 06:33:33;;;;;;;20.83;18.23;;;23.40;38.50;;;;;;4854017;55;20981;-34
2021/12/12 06:38:37;;;;;;;21.08;18.87;;;23.40;38.50;;;;;;4892830;55;21543;-39
2021/12/12 06:43:41;;;;;;;19.45;17.45;;;23.40;38.50;;;;;;4747967;58;21053;-34
2021/12/12 06:48:43;;;;;;;21.25;19.05;;;23.40;38.50;;;;;;4982751;55;21476;-35
2021/12/12 06:53:46;;;;;;;20.85;18.65;;;23.40;38.50;;;;;;4818440;55;21002;-34
2021/12/12 06:58:48;;;;;;;20.33;18.23;;;23.40;38.50;;;;;;4747888;58;20990;-37
2021/12/12 07:03:50;;;;;;;19.85;17.77;;;23.40;38.50;;;;;;5150056;55;21452;-38
2021/12/12 07:08:56;;;;;;;19.58;17.58;;;23.40;38.50;;;;;;4760680;55;21064;-39
2021/12/12 07:13:58;;;;;;;20.62;18.42;;;23.40;38.50;;;;;;4924479;55;20986;-36
2021/12/12 07:19:00;;;;;;;19.42;17.40;;;23.40;38.50;;;;;;4874780;55;21002;-35
2021/12/12 07:24:03;;;;;;;19.50;17.40;;;23.40;38.50;;;;;;4748080;55;21045;-32
2021/12/12 07:29:05;;;;;;;20.48;18.27;;;23.40;38.50;;;;;;4747706;58;21519;-33
2021/12/12 07:34:10;;;;;;;19.98;17.90;;;23.40;38.50;;;;;;4912892;55;21050;-36
2021/12/12 07:39:14;;;;;;;20.92;18.75;;;23.40;38.50;;;;;;4808909;55;21498;-32
2021/12/12 07:44:18;;;;;;;20.23;18.02;;;23.40;38.50;;;;;;4806683;55;21093;-39
2021/12/12 07:49:25;;;;;;;21.23;19.00;;;23.40;38.50;;;;;;4842184;55;21013;-35
2021/12/12 07:54:28;;;;;;;21.42;19.12;;;23.40;38.50;;;;;;5027016;55;21009;-30
2021/12/12 07:59:30;;;;;;;21.48;19.20;;;23.40;38.40;;;;;;4810109;55;21009;-38
2021/12/12 08:04:32;;;;;;;22.35;19.95;;;23.40;38.40;;;;;;4888448;55;21299;-36
2021/12/12 08:09:33;;;;;;;21.92;19.52;;;23.40;38.40;;;;;;4933733;55;21010;-45
2021/12/12 08:14:34;;;;;;;22.42;20.02;;;23.40;38.40;;;;;;4964509;55;21021;-37
2021/12/12 08:19:35;;;;;;;23.92;21.08;;;23.40;38.40;;;;;;4762697;55;21560;-33
2021/12/12 08:24:38;;;;;;;23.70;21.10;;;23.40;38.40;;;;;;4892631;55;20985;-42
2021/12/12 08:29:40;;;;;;;24.98;21.50;;;23.40;38.40;;;;;;4752982;55;21642;-36
2021/12/12 08:34:41;;;;;;;25.77;22.98;;;23.40;38.40;;;;;;4749904;55;21033;-34
2021/12/12 08:39:43;;;;;;;25.52;22.73;;;23.40;38.40;;;;;;4748084;58;21555;-35
2021/12/12 08:44:44;;;;;;;25.12;22.25;;;23.40;38.40;;;;;;4785340;55;21014;-32
2021/12/12 08:49:45;;;;;;;27.85;24.58;;;23.40;38.40;;;;;;4747309;55;21078;-31
2021/12/12 08:54:49;;;;;;;28.98;25.25;;;23.40;38.30;;;;;;4814761;55;20998;-42
2021/12/12 08:59:52;;;;;;;30.08;26.02;;;23.40;38.30;;;;;;4808188;55;21543;-41
2021/12/12 09:04:58;;;;;;;31.42;26.15;;;23.40;38.30;;;;;;4853317;55;21002;-38
2021/12/12 09:12:46;;;;;;;31.33;26.73;;;23.40;38.30;;;;;;4792978;55;21049;-33
2021/12/12 09:17:53;;;;;;;29.42;26.10;;;23.50;38.30;;;;;;4813947;55;21460;-45
2021/12/12 09:23:00;;;;;;;;;;;23.50;38.30;;;;;;4902715;55;21531;-34
2021/12/12 09:28:32;;;;;;;31.70;28.08;;;23.40;38.20;;;;;;4747821;58;20339;-36
2021/12/12 09:34:07;;;;;;;35.20;30.90;;;23.50;38.30;;;;;;4925931;55;21041;-35
2021/12/12 09:39:32;;;;;;;36.40;30.67;;;23.50;38.30;;;;;;4747696;58;21650;-35
2021/12/12 09:54:49;;;;;;;42.55;36.10;;;23.50;38.30;;;;;;4747804;55;21010;-39
2021/12/12 10:01:28;;;;;;;45.33;38.42;;;23.50;38.30;;;;;;4867659;55;20985;-35
2021/12/12 10:06:52;;;;;;;46.33;39.38;;;23.50;38.30;;;;;;4748214;55;21042;-39
2021/12/12 10:12:06;;;;;;;47.75;40.65;;;23.50;38.20;;;;;;4856841;55;21006;-38
2021/12/12 10:18:48;;;;;;;53.97;43.60;;;23.50;38.20;;;;;;4829278;55;21000;-35
2021/12/12 10:24:14;;;;;;;54.45;43.63;;;23.50;38.20;;;;;;4930064;55;21460;-35
2021/12/12 10:29:20;;;;;;;57.50;47.90;;;23.50;38.30;;;;;;4747167;58;21082;-44
2021/12/12 10:34:29;;;;;;;58.40;46.70;;;23.50;38.30;;;;;;4787333;55;21009;-37
2021/12/12 10:39:35;;;;;;;58.38;47.75;;;23.50;38.90;;;;;;4814090;55;21002;-46
2021/12/12 10:44:53;;;;;;;61.65;50.50;;;23.50;38.30;;;;;;4805604;55;21062;-34
2021/12/12 10:50:31;;;;;;;62.83;52.17;;;23.50;38.30;;;;;;4816370;55;21527;-35
2021/12/12 10:56:57;;;;;;;68.70;54.95;;;23.50;38.30;;;;;;4748460;55;21037;-35
2021/12/12 11:02:05;;;;;;;69.07;58.03;;;23.50;38.30;;;;;;5056528;54;20994;-43
2021/12/12 11:07:48;;;;;;;70.18;57.72;;;23.50;38.30;;;;;;4747638;58;20994;-37
2021/12/12 11:13:03;;;;;;;71.65;59.50;;;23.50;38.40;;;;;;4777858;55;21033;-38
2021/12/12 11:18:30;;;;;;;76.82;63.47;;;23.50;38.40;;;;;;4778189;55;21373;-37
2021/12/12 11:25:27;;;;;;;77.75;62.80;;;23.50;38.40;;;;;;4900543;55;21053;-37
2021/12/12 11:30:34;;;;;;;79.18;63.60;;;23.50;38.40;;;;;;4972513;54;21535;-48
2021/12/12 11:35:36;;;;;;;;;;;23.50;38.40;;;;;;4920023;55;21476;-39
2021/12/12 11:40:47;;;;;;;82.47;67.72;;;23.50;38.40;;;;;;4824200;55;20084;-35
2021/12/12 11:45:57;;;;;;;85.12;69.87;;;23.50;38.50;;;;;;4794593;55;21049;-32
2021/12/12 11:51:13;;;;;;;85.15;68.25;;;23.50;38.40;;;;;;4747705;58;21071;-33
2021/12/12 11:56:22;;;;;;;88.10;71.80;;;23.50;39.10;;;;;;4747436;58;21030;-36
2021/12/12 12:01:50;;;;;;;86.90;72.57;;;23.50;38.40;;;;;;4747668;58;21001;-37
2021/12/12 12:10:05;;;;;;;89.32;73.85;;;23.50;38.50;;;;;;4824000;55;21539;-39
2021/12/12 12:22:24;;;;;;;96.03;79.95;;;23.50;38.50;;;;;;4821697;55;21069;-33
2021/12/12 12:28:06;;;;;;;93.55;76.57;;;23.50;38.50;;;;;;5060098;55;21535;-45
2021/12/12 12:34:32;;;;;;;95.62;79.72;;;23.50;38.50;;;;;;4781388;55;21054;-36
2021/12/12 12:40:10;;;;;;;98.95;79.82;;;23.50;38.50;;;;;;4837787;55;21583;-34
2021/12/12 12:47:00;;;;;;;96.87;80.03;;;23.50;38.50;;;;;;4845992;55;21018;-37
2021/12/12 12:53:49;;;;;;;99.60;81.35;;;23.50;38.50;;;;;;4871279;54;21058;-45
2021/12/12 12:59:19;;;;;;;97.60;81.15;;;23.50;38.60;;;;;;4796138;54;21042;-36
2021/12/12 13:05:59;;;;;;;107.70;86.95;;;23.50;38.60;;;;;;4923772;55;21452;-36
2021/12/12 13:11:05;;;;;;;104.57;84.37;;;23.50;38.60;;;;;;4953781;55;21511;-37
2021/12/12 13:16:16;;;;;;;105.78;87.93;;;23.50;38.60;;;;;;4977337;55;20997;-33
2021/12/12 13:25:08;;;;;;;101.68;84.65;;;23.50;38.60;;;;;;5076084;55;21018;-37
2021/12/12 13:30:26;;;;;;;104.63;87.20;;;23.50;38.60;;;;;;4789702;55;21587;-33
2021/12/12 13:36:25;;;;;;;105.47;86.43;;;23.50;38.60;;;;;;4747989;58;21467;-30
2021/12/12 13:45:17;;;;;;;107.37;89.93;;;23.50;38.60;;;;;;4961026;55;20998;-31
2021/12/12 13:51:57;;;;;;;103.10;86.43;;;23.50;38.70;;;;;;4747214;58;21511;-39
2021/12/12 13:57:20;;;;;;;110.47;91.22;;;23.50;38.60;;;;;;4747872;54;21049;-36
2021/12/12 14:02:22;;;;;;;109.25;90.22;;;23.50;38.60;;;;;;4748137;58;21057;-35
2021/12/12 14:08:59;;;;;;;107.53;88.65;;;23.50;38.60;;;;;;4868316;55;21017;-36
2021/12/12 14:14:11;;;;;;;106.90;89.25;;;23.50;38.60;;;;;;4873700;55;20994;-34
2021/12/12 14:19:23;;;;;;;104.82;85.93;;;23.50;38.60;;;;;;4777527;55;21069;-32
2021/12/12 14:24:25;;;;;;;104.00;87.82;;;23.50;38.70;;;;;;4747685;58;21005;-34
2021/12/12 14:29:29;;;;;;;109.82;91.68;;;23.50;38.70;;;;;;4927326;55;21084;-36
2021/12/12 14:34:49;;;;;;;108.87;90.00;;;23.50;38.70;;;;;;4778943;55;21139;-35
2021/12/12 14:39:52;;;;;;;109.32;89.30;;;23.50;38.70;;;;;;4748496;55;21021;-32
2021/12/12 14:45:04;;;;;;;109.05;89.72;;;23.50;38.70;;;;;;5176212;55;21104;-37
2021/12/12 14:50:28;;;;;;;106.80;91.53;;;23.50;38.70;;;;;;4949606;55;21487;-43
2021/12/12 14:55:40;;;;;;;112.97;93.03;;;23.50;38.70;;;;;;4821689;55;21520;-35
2021/12/12 15:01:09;;;;;;;107.28;90.95;;;23.50;38.70;;;;;;4756715;55;21123;-37
2021/12/12 15:06:22;;;;;;;109.28;91.68;;;23.50;38.70;;;;;;4794849;55;21106;-45
2021/12/12 15:11:33;;;;;;;108.85;90.07;;;23.50;38.70;;;;;;4851561;55;21098;-38
2021/12/12 15:16:38;;;;;;;113.78;91.57;;;23.50;38.70;;;;;;4765212;55;20993;-38
2021/12/12 15:21:43;;;;;;;111.05;92.88;;;23.50;38.70;;;;;;4747875;58;21003;-35
2021/12/12 15:26:45;;;;;;;112.50;90.50;;;23.50;38.70;;;;;;4815959;55;20998;-38
2021/12/12 15:31:50;;;;;;;111.28;94.65;;;23.50;38.70;;;;;;5055689;55;20984;-37
2021/12/12 15:36:59;;;;;;;104.57;89.57;;;23.50;38.70;;;;;;4845981;55;21002;-39
2021/12/12 15:42:10;;;;;;;102.50;85.20;;;23.50;38.70;;;;;;4748269;55;20993;-34
2021/12/12 15:47:15;;;;;;;109.97;89.62;;;23.50;38.70;;;;;;4806280;55;21009;-33
2021/12/12 15:52:30;;;;;;;107.63;88.90;;;23.50;38.70;;;;;;4903687;55;21088;-35
2021/12/12 15:57:34;;;;;;;105.80;85.85;;;23.50;38.70;;;;;;4748090;58;21492;-48
2021/12/12 16:02:36;;;;;;;106.65;88.40;;;23.50;38.70;;;;;;4863196;55;21054;-38
2021/12/12 16:07:40;;;;;;;107.25;90.32;;;23.50;38.70;;;;;;4747766;58;21062;-40
2021/12/12 16:12:45;;;;;;;103.65;85.87;;;23.50;38.70;;;;;;4764304;55;21038;-45
2021/12/12 16:17:55;;;;;;;106.28;88.03;;;23.50;38.70;;;;;;4880217;55;20982;-36
2021/12/12 16:22:59;;;;;;;107.12;88.28;;;23.50;38.70;;;;;;4797722;55;21444;-38
2021/12/12 16:28:04;;;;;;;103.07;87.12;;;23.50;38.70;;;;;;4835156;55;21057;-35
2021/12/12 16:33:17;;;;;;;105.50;87.90;;;23.50;38.70;;;;;;4747784;58;21018;-39
2021/12/12 16:38:24;;;;;;;105.47;88.37;;;23.50;38.70;;;;;;4827102;55;20990;-45
2021/12/12 16:43:28;;;;;;;104.50;86.57;;;23.50;38.70;;;;;;4748454;58;21543;-39
2021/12/12 16:52:05;;;;;;;99.47;82.40;;;23.50;38.70;;;;;;4747220;55;21491;-42
2021/12/12 16:57:12;;;;;;;105.60;87.60;;;23.50;38.60;;;;;;4782940;55;20986;-40
2021/12/12 17:02:23;;;;;;;104.40;87.43;;;23.50;38.60;;;;;;4748172;55;21109;-33
2021/12/12 17:07:29;;;;;;;99.65;85.97;;;23.50;38.60;;;;;;4796083;55;21005;-35
2021/12/12 17:12:37;;;;;;;103.57;84.60;;;23.50;38.60;;;;;;4748293;58;21036;-38
2021/12/12 17:17:41;;;;;;;103.35;87.03;;;23.50;38.60;;;;;;4942636;55;21081;-36
2021/12/12 17:22:51;;;;;;;104.70;88.80;;;23.50;38.60;;;;;;4747971;58;21182;-36
2021/12/12 17:27:53;;;;;;;99.50;84.60;;;23.50;38.60;;;;;;4944824;55;21086;-39
2021/12/12 17:33:16;;;;;;;101.47;84.80;;;23.50;38.60;;;;;;4803602;55;21006;-33
2021/12/12 17:38:46;;;;;;;104.75;86.72;;;23.50;38.60;;;;;;4853860;55;21093;-41
2021/12/12 17:47:41;;;;;;;98.95;83.05;;;23.50;38.60;;;;;;5145831;55;21066;-35
2021/12/12 17:56:33;;;;;;;100.67;84.60;;;23.50;38.60;;;;;;4773843;54;21013;-35
2021/12/12 18:01:39;;;;;;;97.55;84.55;;;23.50;38.60;;;;;;4747880;55;21558;-39
2021/12/12 18:07:01;;;;;;;101.40;86.65;;;23.50;38.50;;;;;;4747715;58;21018;-38
2021/12/12 18:12:11;;;;;;;101.60;84.82;;;23.50;38.50;;;;;;5031250;55;21472;-38
2021/12/12 18:18:48;;;;;;;95.47;77.50;;;23.50;38.50;;;;;;4856224;55;21013;-48
2021/12/12 18:23:51;;;;;;;99.82;84.82;;;23.50;38.50;;;;;;5049649;55;21607;-37
2021/12/12 18:28:59;;;;;;;99.65;84.35;;;23.50;38.50;;;;;;4900514;55;21082;-37
2021/12/12 18:34:06;;;;;;;102.28;86.43;;;23.50;38.50;;;;;;4901416;55;20982;-30
2021/12/12 18:39:23;;;;;;;101.40;86.05;;;23.60;38.60;;;;;;4781252;55;20996;-35
2021/12/12 18:44:31;;;;;;;100.47;84.30;;;23.50;38.50;;;;;;4766798;55;21054;-30
2021/12/12 18:49:43;;;;;;;98.00;81.85;;;23.50;38.50;;;;;;4751650;55;21496;-31
2021/12/12 18:55:12;;;;;;;97.20;81.97;;;23.50;38.50;;;;;;4747831;58;21070;-37
2021/12/12 19:00:30;;;;;;;95.80;80.35;;;23.50;38.50;;;;;;4963343;55;21002;-33
2021/12/12 19:05:34;;;;;;;94.53;80.75;;;23.50;38.50;;;;;;4747886;58;20987;-37
2021/12/12 19:10:51;;;;;;;96.32;81.00;;;23.50;38.50;;;;;;4814994;55;21018;-48
2021/12/12 19:15:54;;;;;;;95.15;79.90;;;23.50;38.50;;;;;;4772193;55;21057;-37
2021/12/12 19:21:00;;;;;;;93.87;80.68;;;23.50;38.60;;;;;;4748268;58;21053;-45
2021/12/12 19:26:05;;;;;;;98.73;79.70;;;23.50;38.50;;;;;;4774647;55;21026;-39
2021/12/12 19:31:11;;;;;;;95.20;81.40;;;23.50;38.60;;;;;;4822254;54;21084;-41
2021/12/12 19:36:12;;;;;;;95.87;79.20;;;23.50;38.50;;;;;;4748640;58;21544;-41
2021/12/12 19:41:17;;;;;;;94.78;81.32;;;23.50;38.60;;;;;;4752247;55;21013;-47
2021/12/12 19:46:20;;;;;;;96.30;81.53;;;23.50;38.60;;;;;;4874326;55;21052;-40
2021/12/12 19:51:30;;;;;;;95.35;81.80;;;23.50;38.50;;;;;;5032810;55;21481;-40
2021/12/12 19:56:56;;;;;;;92.35;80.15;;;23.50;38.50;;;;;;5056820;55;21518;-40
2021/12/12 20:02:01;;;;;;;91.22;76.32;;;23.50;38.50;;;;;;5007420;55;21595;-47
2021/12/12 20:07:08;;;;;;;93.95;79.90;;;23.50;38.50;;;;;;4788475;55;21006;-44
2021/12/12 20:12:11;;;;;;;;;;;23.50;38.50;;;;;;4874774;55;20994;-36
2021/12/12 20:17:28;;;;;;;86.68;73.43;;;23.50;38.50;;;;;;4747950;58;20124;-41
2021/12/12 20:22:38;;;;;;;85.28;73.35;;;23.50;38.40;;;;;;4747944;58;21480;-46
2021/12/12 20:27:53;;;;;;;91.97;75.87;;;23.60;38.50;;;;;;4747463;58;21550;-42
2021/12/12 20:32:57;;;;;;;85.28;73.28;;;23.50;38.40;;;;;;4792111;55;21045;-45
2021/12/12 20:38:05;;;;;;;87.10;73.72;;;23.60;38.50;;;;;;4748251;58;20974;-38
2021/12/12 20:43:14;;;;;;;85.32;72.40;;;23.50;38.40;;;;;;4858346;55;21061;-36
2021/12/12 20:48:22;;;;;;;86.90;75.10;;;23.60;38.50;;;;;;4820379;55;21563;-49
2021/12/12 20:53:32;;;;;;;82.95;70.18;;;23.50;38.40;;;;;;4819706;55;21054;-44
2021/12/12 20:58:37;;;;;;;84.55;74.03;;;23.50;38.40;;;;;;4803755;55;21037;-40
2021/12/12 21:03:44;;;;;;;85.05;70.78;;;23.50;38.40;;;;;;4748210;58;21048;-34
2021/12/12 21:08:55;;;;;;;81.28;70.30;;;23.50;38.40;;;;;;4830668;55;21006;-41
2021/12/12 21:13:57;;;;;;;81.03;69.22;;;23.50;38.30;;;;;;4899477;55;21464;-39
2021/12/12 21:19:03;;;;;;;80.10;68.50;;;23.60;38.40;;;;;;4747545;58;21077;-38
2021/12/12 21:24:14;;;;;;;79.95;68.70;;;23.60;38.40;;;;;;4751937;55;21041;-37
2021/12/12 21:29:15;;;;;;;82.22;69.57;;;23.50;38.30;;;;;;4848033;55;21069;-46
2021/12/12 21:34:27;;;;;;;78.70;67.57;;;23.50;38.20;;;;;;5234015;55;21456;-33
2021/12/12 21:39:50;;;;;;;76.78;66.18;;;23.50;38.20;;;;;;4789050;55;21557;-34
2021/12/12 21:45:08;;;;;;;76.65;66.45;;;23.60;38.30;;;;;;4803459;55;20974;-38
2021/12/12 21:51:30;;;;;;;78.28;66.25;;;23.50;38.10;;;;;;4747388;58;21013;-41
2021/12/12 21:56:31;;;;;;;72.82;62.42;;;23.50;37.60;;;;;;4968617;55;20995;-41
2021/12/12 22:01:41;;;;;;;75.05;63.63;;;23.50;38.20;;;;;;4788114;54;20994;-35
2021/12/12 22:06:55;;;;;;;70.10;60.85;;;23.60;38.10;;;;;;4927176;55;21053;-31
2021/12/12 22:13:12;;;;;;;69.68;61.22;;;23.60;38.10;;;;;;4866827;55;21049;-37
2021/12/12 22:18:13;;;;;;;67.57;58.55;;;23.60;38.10;;;;;;4747991;58;21093;-39
2021/12/12 22:23:18;;;;;;;67.18;58.03;;;23.50;38.10;;;;;;4748018;58;21002;-39
2021/12/12 22:28:27;;;;;;;65.97;57.17;;;23.50;38.00;;;;;;4903291;55;21607;-38
2021/12/12 22:33:31;;;;;;;68.60;57.97;;;23.50;38.10;;;;;;4790410;55;21041;-47
2021/12/12 22:38:36;;;;;;;63.72;55.80;;;23.50;38.10;;;;;;4774180;55;21010;-37
2021/12/12 22:43:40;;;;;;;65.37;57.08;;;23.40;38.20;;;;;;4844403;55;21025;-49
2021/12/12 22:49:15;;;;;;;64.70;56.15;;;23.40;38.30;;;;;;4788597;55;21512;-32
2021/12/12 22:54:22;;;;;;;66.07;56.28;;;23.40;38.30;;;;;;4747921;58;20978;-40
2021/12/12 22:59:26;;;;;;;66.32;56.85;;;23.40;38.30;;;;;;4864064;55;20998;-40
2021/12/12 23:04:37;;;;;;;62.67;54.47;;;23.40;38.40;;;;;;4773212;55;21018;-38
2021/12/12 23:09:46;;;;;;;62.22;53.47;;;23.30;38.30;;;;;;4747395;58;21045;-38
2021/12/12 23:14:58;;;;;;;59.28;52.55;;;23.30;38.30;;;;;;4854746;55;21073;-37
2021/12/12 23:20:04;;;;;;;61.28;52.40;;;23.30;38.30;;;;;;4890456;55;20986;-48
2021/12/12 23:25:10;;;;;;;60.60;51.55;;;23.30;38.30;;;;;;4794974;55;21002;-48
2021/12/12 23:30:16;;;;;;;58.60;51.08;;;23.30;38.20;;;;;;4805446;55;21014;-45
2021/12/12 23:35:20;;;;;;;57.15;50.45;;;23.30;38.20;;;;;;4764192;55;21030;-37
2021/12/12 23:40:34;;;;;;;58.30;48.78;;;23.30;38.20;;;;;;4747405;58;21069;-33
2021/12/12 23:45:44;;;;;;;55.60;49.47;;;23.30;38.20;;;;;;4747325;58;21001;-39
2021/12/12 23:51:10;;;;;;;53.60;46.25;;;23.30;38.20;;;;;;4746761;58;21468;-35
2021/12/12 23:56:24;;;;;;;52.50;46.27;;;23.30;38.30;;;;;;4808972;55;21050;-37
